Time;durP1;ratioP1;P1;durP2;ratioP2;P2;SDS_P1;SDS_P2;PMS_P1;PMS_P2;Temp;Humidity;BMP_temperature;BMP_pressure;BME280_temperature;BME280_humidity;BME280_pressure;Samples;Min_cycle;Max_cycle;Signal;HPM_P1;HPM_P2
2023/05/15 00:01:46;;;;;;;5.35;4.15;;;13.70;99.90;;;;;;12476901;28;20892;-38
2023/05/15 00:07:48;;;;;;;6.97;4.10;;;13.40;99.90;;;;;;12426315;28;20112;-38
2023/05/15 00:13:53;;;;;;;4.88;3.63;;;13.60;99.90;;;;;;12424280;28;20414;-38
2023/05/15 00:19:58;;;;;;;5.50;3.70;;;13.50;99.90;;;;;;12433956;28;20042;-37
2023/05/15 00:26:02;;;;;;;;;;;13.00;99.90;;;;;;12427894;28;20125;-38
2023/05/15 00:32:06;;;;;;;6.78;4.10;;;12.40;99.90;;;;;;12429841;28;19922;-38
2023/05/15 00:38:10;;;;;;;6.13;4.38;;;12.10;99.90;;;;;;12434973;28;20050;-38
2023/05/15 00:44:17;;;;;;;6.28;4.45;;;12.10;99.90;;;;;;12403272;28;20057;-39
2023/05/15 00:50:23;;;;;;;8.20;4.22;;;12.20;99.90;;;;;;12430506;28;20050;-38
2023/05/15 00:56:29;;;;;;;6.72;4.75;;;12.60;99.90;;;;;;12432801;28;20444;-39
2023/05/15 01:02:33;;;;;;;5.28;4.65;;;12.20;99.90;;;;;;12428726;28;20529;-37
2023/05/15 01:08:45;;;;;;;6.65;4.45;;;11.60;99.90;;;;;;12459513;28;20064;-39
2023/05/15 01:14:49;;;;;;;6.25;4.90;;;11.80;99.90;;;;;;12478528;28;20045;-38
2023/05/15 01:21:04;;;;;;;7.38;4.60;;;11.70;99.90;;;;;;12506390;28;20049;-38
2023/05/15 01:27:34;;;;;;;5.20;4.35;;;11.70;99.90;;;;;;12490563;28;20053;-38
2023/05/15 01:33:42;;;;;;;8.52;5.00;;;11.70;99.90;;;;;;12489376;28;20111;-39
2023/05/15 01:39:49;;;;;;;5.38;4.30;;;11.90;99.90;;;;;;12486410;28;20053;-38
2023/05/15 01:45:53;;;;;;;5.90;5.05;;;12.20;99.90;;;;;;12492653;28;20084;-39
2023/05/15 01:52:21;;;;;;;6.65;5.03;;;12.40;99.90;;;;;;12475629;28;20144;-39
2023/05/15 01:58:26;;;;;;;7.38;5.15;;;12.30;99.90;;;;;;12495066;28;20049;-38
2023/05/15 02:04:29;;;;;;;;;;;12.20;99.90;;;;;;12481843;28;20135;-38
2023/05/15 02:10:34;;;;;;;6.87;5.10;;;12.30;99.90;;;;;;12504924;28;19927;-38
2023/05/15 02:16:37;;;;;;;11.35;6.47;;;12.00;99.90;;;;;;12471939;28;20405;-38
2023/05/15 02:22:45;;;;;;;7.78;5.88;;;12.00;99.90;;;;;;12495790;28;20049;-38
2023/05/15 02:29:08;;;;;;;10.60;6.00;;;12.10;99.90;;;;;;12500005;28;20099;-38
2023/05/15 02:35:23;;;;;;;9.73;6.70;;;12.10;99.90;;;;;;12498290;28;20041;-38
2023/05/15 02:41:29;;;;;;;6.55;5.82;;;12.10;99.90;;;;;;12496017;28;20050;-37
2023/05/15 02:47:33;;;;;;;8.00;6.80;;;12.10;99.90;;;;;;12481939;28;20526;-39
2023/05/15 02:53:43;;;;;;;6.60;5.60;;;12.00;99.90;;;;;;12483701;28;20482;-39
2023/05/15 02:59:46;;;;;;;8.93;6.85;;;12.10;99.90;;;;;;12487306;28;20045;-39
2023/05/15 03:05:50;;;;;;;8.23;6.70;;;11.90;99.90;;;;;;12494496;28;20053;-38
2023/05/15 03:11:54;;;;;;;10.00;6.95;;;11.70;99.90;;;;;;12487509;28;20053;-38
2023/05/15 03:17:59;;;;;;;10.13;7.40;;;11.40;99.90;;;;;;12476079;28;20057;-38
2023/05/15 03:24:08;;;;;;;8.65;6.70;;;11.20;99.90;;;;;;12489679;28;20140;-38
2023/05/15 03:30:25;;;;;;;10.82;6.72;;;11.20;99.90;;;;;;12485676;28;20049;-38
2023/05/15 03:36:35;;;;;;;9.52;6.80;;;11.20;99.90;;;;;;12484051;28;20060;-38
2023/05/15 03:42:44;;;;;;;8.18;7.38;;;11.60;99.90;;;;;;12496393;28;20053;-39
2023/05/15 03:48:53;;;;;;;8.27;6.90;;;11.70;99.90;;;;;;12488475;28;20049;-40
2023/05/15 03:55:00;;;;;;;11.15;7.70;;;11.80;99.90;;;;;;12470405;28;20049;-37
2023/05/15 04:01:07;;;;;;;11.23;7.65;;;11.80;99.90;;;;;;12476765;28;20054;-38
2023/05/15 04:07:12;;;;;;;11.88;7.82;;;11.90;99.90;;;;;;12479695;28;20053;-37
2023/05/15 04:13:16;;;;;;;7.28;6.45;;;12.00;99.90;;;;;;12486894;28;20064;-38
2023/05/15 04:19:20;;;;;;;;;;;12.50;99.90;;;;;;12488475;28;20482;-37
2023/05/15 04:25:26;;;;;;;7.07;5.55;;;14.20;99.90;;;;;;12490494;28;19921;-37
2023/05/15 04:31:31;;;;;;;6.72;5.57;;;15.70;99.90;;;;;;12487299;28;20053;-38
2023/05/15 04:37:37;;;;;;;9.88;6.20;;;15.20;99.90;;;;;;12481351;28;20094;-37
2023/05/15 04:43:40;;;;;;;;;;;14.00;99.90;;;;;;12474591;28;20049;-39
2023/05/15 04:49:44;;;;;;;7.28;5.57;;;14.10;99.90;;;;;;12486399;28;19921;-39
2023/05/15 04:55:50;;;;;;;7.63;5.18;;;14.70;99.90;;;;;;12469852;28;20041;-38
2023/05/15 05:01:56;;;;;;;6.78;5.70;;;15.90;99.90;;;;;;12476477;28;20188;-38
2023/05/15 05:08:04;;;;;;;5.95;5.35;;;16.20;99.90;;;;;;12484029;28;20061;-37
2023/05/15 05:14:13;;;;;;;6.88;5.47;;;16.40;99.90;;;;;;12469895;28;20045;-38
2023/05/15 05:20:19;;;;;;;8.00;6.15;;;16.20;99.90;;;;;;12501061;28;20053;-38
2023/05/15 05:26:23;;;;;;;6.90;5.30;;;15.80;99.90;;;;;;12495332;28;20203;-39
2023/05/15 05:32:30;;;;;;;6.35;5.15;;;15.70;99.90;;;;;;12494772;28;20072;-38
2023/05/15 05:38:36;;;;;;;8.10;6.82;;;15.90;99.90;;;;;;12474134;28;20056;-38
2023/05/15 05:44:40;;;;;;;10.05;6.50;;;14.80;99.90;;;;;;12495075;28;20045;-38
2023/05/15 05:50:51;;;;;;;8.13;6.70;;;14.40;99.90;;;;;;12480131;28;20091;-36
2023/05/15 05:56:57;;;;;;;7.57;6.78;;;15.10;99.90;;;;;;12491516;28;20128;-36
2023/05/15 06:03:01;;;;;;;;;;;15.20;99.90;;;;;;12500638;28;20095;-36
2023/05/15 06:09:08;;;;;;;10.73;8.52;;;15.40;99.90;;;;;;12474120;28;19994;-36
2023/05/15 06:15:17;;;;;;;8.25;7.38;;;15.40;99.90;;;;;;12464431;28;20048;-36
2023/05/15 06:21:25;;;;;;;10.07;8.05;;;15.20;99.90;;;;;;12499530;28;20044;-36
2023/05/15 06:27:32;;;;;;;10.38;8.80;;;14.70;99.90;;;;;;12493662;28;20128;-35
2023/05/15 06:33:37;;;;;;;11.10;8.70;;;15.20;99.90;;;;;;12499114;28;20056;-36
2023/05/15 06:39:44;;;;;;;11.30;8.80;;;15.90;99.90;;;;;;12477557;28;20064;-36
2023/05/15 06:45:52;;;;;;;10.95;7.13;;;16.20;99.90;;;;;;12493532;28;20136;-36
2023/05/15 06:52:01;;;;;;;12.45;8.80;;;16.60;99.90;;;;;;12504144;28;20037;-36
2023/05/15 06:58:10;;;;;;;10.45;8.18;;;15.90;99.90;;;;;;12500846;28;20417;-36
2023/05/15 07:04:18;;;;;;;8.68;6.75;;;16.00;99.90;;;;;;12508921;28;20049;-37
2023/05/15 07:10:28;;;;;;;12.15;8.77;;;16.60;99.90;;;;;;12506471;28;20046;-36
2023/05/15 07:16:35;;;;;;;12.07;9.75;;;16.00;99.90;;;;;;12488426;28;20497;-36
2023/05/15 07:22:43;;;;;;;8.75;7.85;;;16.00;99.90;;;;;;12489826;28;20050;-36
2023/05/15 07:29:00;;;;;;;10.20;9.05;;;15.80;99.90;;;;;;12499912;28;20072;-37
2023/05/15 07:35:07;;;;;;;12.02;9.27;;;15.70;99.90;;;;;;12498392;28;20048;-36
2023/05/15 07:41:16;;;;;;;11.90;9.15;;;15.70;99.90;;;;;;12480180;28;20124;-36
2023/05/15 07:47:24;;;;;;;12.15;9.93;;;15.50;99.90;;;;;;12490049;28;20513;-37
2023/05/15 07:53:33;;;;;;;12.30;10.38;;;16.00;99.90;;;;;;12487931;28;20049;-37
2023/05/15 07:59:41;;;;;;;11.93;10.50;;;15.80;99.90;;;;;;12480936;28;20233;-36
2023/05/15 08:05:50;;;;;;;13.82;9.90;;;16.10;99.90;;;;;;12489449;28;20131;-37
2023/05/15 08:12:24;;;;;;;10.63;9.48;;;16.50;99.90;;;;;;12495257;28;20100;-36
2023/05/15 08:18:33;;;;;;;10.15;8.43;;;16.30;99.90;;;;;;12484492;28;20045;-37
2023/05/15 08:24:41;;;;;;;12.13;9.30;;;16.60;99.90;;;;;;12468551;28;20187;-36
2023/05/15 08:30:53;;;;;;;10.27;8.00;;;16.70;99.90;;;;;;12489157;28;20057;-37
2023/05/15 08:37:00;;;;;;;11.05;8.43;;;17.00;99.90;;;;;;12487929;28;20080;-36
2023/05/15 08:43:15;;;;;;;9.38;8.05;;;17.40;99.90;;;;;;12482822;28;20050;-38
2023/05/15 08:49:45;;;;;;;10.88;9.27;;;17.60;99.90;;;;;;12498840;28;20069;-37
2023/05/15 08:55:52;;;;;;;12.68;9.38;;;17.60;99.90;;;;;;12490361;28;20480;-37
2023/05/15 09:02:01;;;;;;;11.00;9.27;;;17.70;99.90;;;;;;12479763;28;20409;-37
2023/05/15 09:08:07;;;;;;;12.45;10.27;;;18.10;99.90;;;;;;12473810;28;20062;-37
2023/05/15 09:14:15;;;;;;;13.68;12.27;;;18.40;99.90;;;;;;12468525;28;20074;-37
2023/05/15 09:20:39;;;;;;;15.13;12.57;;;18.40;99.90;;;;;;12479505;28;20050;-38
2023/05/15 09:26:47;;;;;;;16.98;14.32;;;19.10;99.90;;;;;;12470446;28;20057;-37
2023/05/15 09:32:56;;;;;;;16.90;14.90;;;18.80;99.90;;;;;;12467953;28;20085;-37
2023/05/15 09:39:02;;;;;;;20.67;15.20;;;19.00;99.90;;;;;;12470757;28;20085;-37
2023/05/15 09:45:17;;;;;;;18.10;14.60;;;18.90;99.90;;;;;;12478770;28;20042;-37
2023/05/15 09:51:27;;;;;;;23.30;17.45;;;19.50;99.90;;;;;;12485124;28;20049;-37
2023/05/15 09:57:33;;;;;;;18.73;15.25;;;19.00;99.90;;;;;;12482912;28;20041;-37
2023/05/15 10:03:41;;;;;;;22.05;17.98;;;19.40;99.90;;;;;;12484228;28;20053;-37
2023/05/15 10:09:43;;;;;;;22.85;19.85;;;19.20;99.90;;;;;;12465385;28;20060;-40
2023/05/15 10:15:48;;;;;;;19.87;17.30;;;19.10;99.90;;;;;;12480274;28;20484;-37
2023/05/15 10:21:55;;;;;;;13.15;10.98;;;18.80;99.90;;;;;;12474815;28;20056;-37
2023/05/15 10:28:00;;;;;;;13.88;11.32;;;19.40;99.90;;;;;;12472739;28;20049;-37
2023/05/15 10:34:04;;;;;;;12.98;9.27;;;19.00;99.90;;;;;;12472043;28;20045;-37
2023/05/15 10:40:13;;;;;;;11.77;10.02;;;19.10;99.90;;;;;;12489497;28;20734;-37
2023/05/15 10:46:18;;;;;;;14.32;10.25;;;19.80;99.90;;;;;;12440511;28;20049;-37
2023/05/15 10:52:22;;;;;;;18.35;10.48;;;20.30;99.90;;;;;;12478670;28;20044;-37
2023/05/15 10:58:28;;;;;;;14.38;9.52;;;20.60;99.90;;;;;;12471000;28;20456;-37
2023/05/15 11:04:32;;;;;;;16.58;8.45;;;20.70;99.90;;;;;;12491909;28;20417;-38
2023/05/15 11:10:38;;;;;;;10.85;8.40;;;20.90;99.90;;;;;;12473545;28;20051;-37
2023/05/15 11:16:54;;;;;;;15.57;7.00;;;19.90;99.90;;;;;;12469133;28;20147;-37
2023/05/15 11:22:58;;;;;;;8.70;6.03;;;20.60;99.90;;;;;;12458373;28;20058;-37
2023/05/15 11:29:18;;;;;;;10.45;5.70;;;20.70;99.90;;;;;;12487443;28;20263;-38
2023/05/15 11:35:29;;;;;;;8.50;6.65;;;20.90;99.90;;;;;;12487707;28;20426;-37
2023/05/15 11:41:34;;;;;;;9.40;6.97;;;20.20;99.90;;;;;;12494646;28;20053;-37
2023/05/15 11:47:37;;;;;;;13.02;9.85;;;19.90;99.90;;;;;;12489903;28;20115;-38
2023/05/15 11:53:42;;;;;;;10.52;7.20;;;19.30;99.90;;;;;;12480800;28;20065;-37
2023/05/15 11:59:47;;;;;;;14.80;11.88;;;18.90;99.90;;;;;;12467096;28;20327;-37
2023/05/15 12:05:52;;;;;;;15.93;13.90;;;18.50;99.90;;;;;;12470987;28;20102;-37
2023/05/15 12:12:03;;;;;;;16.52;12.27;;;18.30;99.90;;;;;;12486757;28;20057;-37
2023/05/15 12:18:08;;;;;;;17.65;13.95;;;18.20;99.90;;;;;;12482112;28;20059;-37
2023/05/15 12:24:12;;;;;;;24.70;16.23;;;18.20;99.90;;;;;;12481846;28;20045;-37
2023/05/15 12:30:17;;;;;;;21.40;15.95;;;18.20;99.90;;;;;;12492489;28;20485;-37
2023/05/15 12:36:21;;;;;;;16.92;12.88;;;18.70;99.90;;;;;;12478198;28;20053;-37
2023/05/15 12:42:25;;;;;;;15.55;11.75;;;19.30;99.90;;;;;;12480036;28;20041;-37
2023/05/15 12:48:30;;;;;;;;;;;19.50;99.90;;;;;;12514478;28;20060;-37
2023/05/15 12:54:43;;;;;;;14.20;9.20;;;18.90;99.90;;;;;;12478182;28;19932;-37
2023/05/15 13:00:51;;;;;;;11.75;7.47;;;19.30;99.90;;;;;;12476444;28;20053;-40
2023/05/15 13:06:54;;;;;;;12.75;10.10;;;19.50;99.90;;;;;;12487358;28;20060;-37
2023/05/15 13:12:59;;;;;;;13.27;9.55;;;20.10;99.90;;;;;;12474581;28;20410;-38
2023/05/15 13:19:08;;;;;;;12.23;8.77;;;20.10;99.90;;;;;;12475109;28;20049;-37
2023/05/15 13:25:16;;;;;;;13.52;8.30;;;20.50;99.90;;;;;;12464881;28;20046;-37
2023/05/15 13:31:20;;;;;;;11.15;8.15;;;20.40;99.90;;;;;;12490411;28;20477;-36
2023/05/15 13:37:25;;;;;;;8.90;6.10;;;20.50;99.90;;;;;;12508025;28;20054;-36
2023/05/15 13:43:29;;;;;;;12.90;7.22;;;20.10;99.90;;;;;;12483014;28;20187;-37
2023/05/15 13:49:32;;;;;;;12.77;6.93;;;19.80;99.90;;;;;;12493962;28;20084;-37
2023/05/15 13:55:35;;;;;;;11.98;7.90;;;19.60;99.90;;;;;;12492279;28;20046;-37
2023/05/15 14:01:41;;;;;;;9.65;7.05;;;19.50;99.90;;;;;;12497262;28;20042;-36
2023/05/15 14:07:47;;;;;;;11.93;8.57;;;19.50;99.90;;;;;;12478686;28;20525;-37
2023/05/15 14:13:52;;;;;;;14.20;8.90;;;19.40;99.90;;;;;;12506635;28;20045;-36
2023/05/15 14:19:57;;;;;;;12.95;8.85;;;19.40;99.90;;;;;;12497887;28;20410;-37
2023/05/15 14:26:02;;;;;;;;;;;19.40;99.90;;;;;;12483449;28;20501;-37
2023/05/15 14:32:11;;;;;;;11.40;6.88;;;19.20;99.90;;;;;;12490723;28;20292;-37
2023/05/15 14:38:20;;;;;;;11.40;7.60;;;19.80;99.90;;;;;;12499168;28;20052;-37
2023/05/15 14:44:29;;;;;;;9.85;6.95;;;20.40;99.90;;;;;;12498930;28;20087;-39
2023/05/15 14:50:44;;;;;;;14.68;7.47;;;20.20;99.90;;;;;;12501822;28;20559;-37
2023/05/15 14:56:52;;;;;;;11.02;7.13;;;20.30;99.90;;;;;;12501486;28;20453;-37
2023/05/15 15:03:01;;;;;;;12.98;8.85;;;20.60;99.90;;;;;;12497827;28;20525;-37
2023/05/15 15:09:08;;;;;;;14.70;9.77;;;20.30;99.90;;;;;;12483629;28;20084;-37
2023/05/15 15:15:11;;;;;;;15.00;10.73;;;20.10;99.90;;;;;;12463773;28;20096;-37
2023/05/15 15:21:17;;;;;;;14.27;9.93;;;19.10;99.90;;;;;;12473271;28;20050;-38
2023/05/15 15:27:20;;;;;;;14.57;10.25;;;18.90;99.90;;;;;;12473471;28;20046;-37
2023/05/15 15:33:30;;;;;;;15.02;11.73;;;18.70;99.90;;;;;;12485743;28;20048;-37
2023/05/15 15:39:33;;;;;;;15.98;9.65;;;18.20;99.90;;;;;;12476263;28;20140;-38
2023/05/15 15:45:37;;;;;;;16.95;9.73;;;18.40;99.90;;;;;;12471600;28;20053;-37
2023/05/15 15:51:42;;;;;;;23.98;12.10;;;18.30;99.90;;;;;;12495486;28;20053;-36
2023/05/15 15:57:48;;;;;;;12.65;9.80;;;18.30;99.90;;;;;;12489481;28;20053;-36
2023/05/15 16:03:52;;;;;;;18.15;9.85;;;18.30;99.90;;;;;;12468842;28;20417;-36
2023/05/15 16:09:55;;;;;;;12.68;9.10;;;18.20;99.90;;;;;;12490719;28;20409;-36
2023/05/15 16:16:13;;;;;;;12.85;8.52;;;18.10;99.90;;;;;;12469382;28;20045;-37
2023/05/15 16:22:17;;;;;;;11.95;8.07;;;18.00;99.90;;;;;;12479261;28;20046;-37
2023/05/15 16:28:21;;;;;;;;;;;17.90;99.90;;;;;;12492562;28;20060;-37
2023/05/15 16:34:27;;;;;;;11.83;7.07;;;18.00;99.90;;;;;;12460522;28;19921;-36
2023/05/15 16:40:36;;;;;;;11.38;6.97;;;18.10;99.90;;;;;;12484564;28;20045;-37
2023/05/15 16:46:42;;;;;;;11.02;6.68;;;18.00;99.90;;;;;;12472705;28;20080;-38
2023/05/15 16:52:48;;;;;;;10.10;5.50;;;18.10;99.90;;;;;;12498085;28;20050;-37
2023/05/15 16:58:55;;;;;;;8.13;4.60;;;18.80;99.90;;;;;;12495710;28;20049;-37
2023/05/15 17:04:58;;;;;;;6.80;4.10;;;19.50;99.90;;;;;;12500651;28;20080;-37
2023/05/15 17:11:04;;;;;;;6.27;3.77;;;19.80;99.90;;;;;;12489257;28;20409;-37
2023/05/15 17:17:07;;;;;;;8.95;3.72;;;19.60;99.90;;;;;;12496800;28;20810;-37
2023/05/15 17:23:10;;;;;;;7.60;3.50;;;19.20;99.90;;;;;;12476346;28;20084;-38
2023/05/15 17:29:13;;;;;;;6.55;3.20;;;18.90;99.90;;;;;;12497096;28;20374;-37
2023/05/15 17:35:17;;;;;;;6.80;3.05;;;18.40;99.90;;;;;;12480973;28;20056;-36
2023/05/15 17:41:22;;;;;;;4.93;3.67;;;18.20;99.90;;;;;;12484108;28;20041;-37
2023/05/15 17:47:25;;;;;;;5.65;3.03;;;18.40;99.90;;;;;;12506298;28;20068;-36
2023/05/15 17:53:30;;;;;;;6.93;3.03;;;18.80;99.90;;;;;;12496209;28;20053;-37
2023/05/15 17:59:34;;;;;;;4.88;2.65;;;18.90;99.90;;;;;;12479367;28;20046;-37
2023/05/15 18:05:37;;;;;;;4.78;2.83;;;18.90;99.90;;;;;;12474829;28;20049;-36
2023/05/15 18:11:42;;;;;;;6.45;3.08;;;18.20;99.90;;;;;;12494725;28;20053;-36
2023/05/15 18:17:45;;;;;;;;;;;17.80;99.90;;;;;;12476685;28;20128;-36
2023/05/15 18:23:53;;;;;;;4.83;3.20;;;17.30;99.90;;;;;;12500667;28;19921;-35
2023/05/15 18:29:58;;;;;;;4.70;3.15;;;17.10;99.90;;;;;;12468611;28;20482;-36
2023/05/15 18:36:02;;;;;;;7.57;3.45;;;16.80;99.90;;;;;;12485225;28;20045;-36
2023/05/15 18:42:08;;;;;;;6.57;3.70;;;16.70;99.90;;;;;;12480169;28;20080;-36
2023/05/15 18:48:12;;;;;;;5.15;3.78;;;16.50;99.90;;;;;;12481984;28;20049;-36
2023/05/15 18:54:16;;;;;;;6.72;4.20;;;16.20;99.90;;;;;;12486154;28;20058;-35
2023/05/15 19:00:22;;;;;;;;;;;16.20;99.90;;;;;;12492537;28;20084;-36
2023/05/15 19:06:38;;;;;;;5.88;4.00;;;16.00;99.90;;;;;;12458810;28;19928;-36
2023/05/15 19:12:43;;;;;;;7.93;3.40;;;16.00;99.90;;;;;;12481203;28;20140;-35
2023/05/15 19:18:46;;;;;;;5.55;3.15;;;15.80;99.90;;;;;;12486812;28;20046;-36
2023/05/15 19:24:51;;;;;;;6.33;4.50;;;15.50;99.90;;;;;;12485623;28;20136;-36
2023/05/15 19:30:55;;;;;;;6.57;4.93;;;15.20;99.90;;;;;;12496377;28;20045;-36
2023/05/15 19:36:57;;;;;;;7.17;5.80;;;14.90;99.90;;;;;;12481011;28;20054;-35
2023/05/15 19:43:00;;;;;;;8.35;5.97;;;14.80;99.90;;;;;;12496789;28;20513;-35
2023/05/15 19:49:06;;;;;;;9.02;6.50;;;14.40;99.90;;;;;;12496394;28;20055;-35
2023/05/15 19:55:11;;;;;;;10.10;7.45;;;14.50;99.90;;;;;;12476701;28;20037;-35
2023/05/15 20:01:16;;;;;;;9.07;7.00;;;14.30;99.90;;;;;;12476208;28;20061;-35
2023/05/15 20:07:19;;;;;;;8.77;7.50;;;13.90;99.90;;;;;;12479028;28;20413;-35
2023/05/15 20:13:24;;;;;;;10.15;7.25;;;13.70;99.90;;;;;;12484175;28;20069;-37
2023/05/15 20:19:29;;;;;;;10.50;7.72;;;13.40;99.90;;;;;;12496230;28;20057;-35
2023/05/15 20:25:34;;;;;;;10.00;7.82;;;13.50;99.90;;;;;;12469631;28;20042;-35
2023/05/15 20:31:39;;;;;;;12.40;9.45;;;13.40;99.90;;;;;;12484084;28;20042;-36
2023/05/15 20:37:43;;;;;;;13.48;9.35;;;13.50;99.90;;;;;;12464241;28;20052;-35
2023/05/15 20:43:49;;;;;;;12.23;9.18;;;13.10;99.90;;;;;;12498487;28;20566;-36
2023/05/15 20:49:53;;;;;;;12.05;9.60;;;13.10;99.90;;;;;;12487641;28;20060;-34
2023/05/15 20:55:56;;;;;;;11.50;9.65;;;12.70;99.90;;;;;;12485805;28;20536;-35
2023/05/15 21:02:00;;;;;;;12.02;9.68;;;12.90;99.90;;;;;;12488947;28;20041;-35
2023/05/15 21:08:04;;;;;;;12.98;9.98;;;12.70;99.90;;;;;;12458409;28;20519;-35
2023/05/15 21:14:09;;;;;;;14.00;10.00;;;13.00;99.90;;;;;;12428834;28;20136;-38
2023/05/15 21:20:20;;;;;;;12.05;8.75;;;12.90;99.90;;;;;;12429978;28;20292;-38
2023/05/15 21:26:27;;;;;;;10.35;9.25;;;13.00;99.90;;;;;;12409994;28;20619;-37
2023/05/15 21:32:30;;;;;;;11.82;9.75;;;13.00;99.90;;;;;;12422378;28;20061;-37
2023/05/15 21:38:34;;;;;;;11.48;9.75;;;12.80;99.90;;;;;;12417304;28;20045;-37
2023/05/15 21:44:37;;;;;;;13.93;9.37;;;12.70;99.90;;;;;;12435948;28;20053;-37
2023/05/15 21:50:42;;;;;;;12.80;9.60;;;12.80;99.90;;;;;;12430365;28;20123;-37
2023/05/15 21:56:46;;;;;;;13.20;9.68;;;12.80;99.90;;;;;;12417702;28;20045;-37
2023/05/15 22:02:50;;;;;;;14.52;10.50;;;12.70;99.90;;;;;;12453219;28;20447;-37
2023/05/15 22:08:54;;;;;;;12.52;10.20;;;12.40;99.90;;;;;;12477342;28;20104;-37
2023/05/15 22:14:58;;;;;;;14.18;10.80;;;12.40;99.90;;;;;;12470675;28;20042;-37
2023/05/15 22:21:02;;;;;;;12.43;9.48;;;12.40;99.90;;;;;;12491239;28;20453;-38
2023/05/15 22:27:05;;;;;;;12.95;10.20;;;12.30;99.90;;;;;;12481159;28;20434;-37
2023/05/15 22:33:08;;;;;;;14.85;11.07;;;12.30;99.90;;;;;;12494592;28;20195;-37
2023/05/15 22:39:11;;;;;;;15.57;11.30;;;12.20;99.90;;;;;;12492672;28;20041;-37
2023/05/15 22:45:15;;;;;;;14.13;11.67;;;11.70;99.90;;;;;;12478358;28;20041;-37
2023/05/15 22:51:21;;;;;;;15.90;11.88;;;11.70;99.90;;;;;;12490594;28;20390;-38
2023/05/15 22:57:25;;;;;;;14.68;10.93;;;11.80;99.90;;;;;;12495910;28;20049;-38
2023/05/15 23:03:29;;;;;;;16.52;11.80;;;11.50;99.90;;;;;;12495866;28;20049;-37
2023/05/15 23:09:32;;;;;;;16.98;12.23;;;11.80;99.90;;;;;;12478835;28;20108;-39
2023/05/15 23:15:36;;;;;;;15.95;11.25;;;11.50;99.90;;;;;;12484482;28;20048;-38
2023/05/15 23:21:39;;;;;;;17.37;11.93;;;11.70;99.90;;;;;;12474306;28;20482;-37
2023/05/15 23:27:43;;;;;;;14.90;11.43;;;11.70;99.90;;;;;;12477723;28;20809;-39
2023/05/15 23:33:45;;;;;;;13.63;10.40;;;11.70;99.90;;;;;;12480614;28;20045;-38
2023/05/15 23:39:48;;;;;;;15.20;10.60;;;11.70;99.90;;;;;;12477716;28;20061;-38
2023/05/15 23:45:51;;;;;;;14.40;9.80;;;11.60;99.90;;;;;;12497832;28;20528;-38
2023/05/15 23:51:55;;;;;;;15.48;9.93;;;11.70;99.90;;;;;;12490656;28;20052;-38
2023/05/15 23:57:58;;;;;;;14.13;9.65;;;11.60;99.90;;;;;;12476920;28;20076;-38
